sensor_id;sensor_type;location;lat;lon;timestamp;temperature;humidity
68701;DHT22;55682;51.114;5.882;2023-03-14T00:00:58;12.22;80.82
68701;DHT22;55682;51.114;5.882;2023-03-14T00:03:24;12.30;80.37
68701;DHT22;55682;51.114;5.882;2023-03-14T00:05:50;12.19;80.36
68701;DHT22;55682;51.114;5.882;2023-03-14T00:08:15;12.27;79.83
68701;DHT22;55682;51.114;5.882;2023-03-14T00:10:41;12.18;80.18
68701;DHT22;55682;51.114;5.882;2023-03-14T00:13:07;12.25;79.33
68701;DHT22;55682;51.114;5.882;2023-03-14T00:15:34;12.15;79.55
68701;DHT22;55682;51.114;5.882;2023-03-14T00:18:00;12.13;79.45
68701;DHT22;55682;51.114;5.882;2023-03-14T00:20:26;12.15;79.49
68701;DHT22;55682;51.114;5.882;2023-03-14T00:22:52;12.11;79.51
68701;DHT22;55682;51.114;5.882;2023-03-14T00:25:18;12.00;79.20
68701;DHT22;55682;51.114;5.882;2023-03-14T00:27:44;12.17;78.47
68701;DHT22;55682;51.114;5.882;2023-03-14T00:30:12;12.18;78.03
68701;DHT22;55682;51.114;5.882;2023-03-14T00:32:38;12.21;77.72
68701;DHT22;55682;51.114;5.882;2023-03-14T00:35:04;11.89;78.49
68701;DHT22;55682;51.114;5.882;2023-03-14T00:37:29;12.04;77.93
68701;DHT22;55682;51.114;5.882;2023-03-14T00:39:55;12.00;77.89
68701;DHT22;55682;51.114;5.882;2023-03-14T00:42:21;11.98;77.69
68701;DHT22;55682;51.114;5.882;2023-03-14T00:44:46;11.94;77.66
68701;DHT22;55682;51.114;5.882;2023-03-14T00:47:12;11.93;77.44
68701;DHT22;55682;51.114;5.882;2023-03-14T00:49:38;11.93;77.61
68701;DHT22;55682;51.114;5.882;2023-03-14T00:52:04;11.88;77.63
68701;DHT22;55682;51.114;5.882;2023-03-14T00:54:30;11.87;77.31
68701;DHT22;55682;51.114;5.882;2023-03-14T00:56:56;11.98;77.31
68701;DHT22;55682;51.114;5.882;2023-03-14T00:59:21;11.92;77.24
68701;DHT22;55682;51.114;5.882;2023-03-14T01:01:47;11.96;77.49
68701;DHT22;55682;51.114;5.882;2023-03-14T01:04:13;11.88;77.82
68701;DHT22;55682;51.114;5.882;2023-03-14T01:06:39;11.99;77.63
68701;DHT22;55682;51.114;5.882;2023-03-14T01:09:05;12.02;77.39
68701;DHT22;55682;51.114;5.882;2023-03-14T01:11:33;12.04;77.20
68701;DHT22;55682;51.114;5.882;2023-03-14T01:14:00;12.04;77.00
68701;DHT22;55682;51.114;5.882;2023-03-14T01:16:31;11.90;77.69
68701;DHT22;55682;51.114;5.882;2023-03-14T01:19:00;11.79;78.00
68701;DHT22;55682;51.114;5.882;2023-03-14T01:21:31;11.73;78.37
68701;DHT22;55682;51.114;5.882;2023-03-14T01:23:59;11.72;78.56
68701;DHT22;55682;51.114;5.882;2023-03-14T01:26:27;11.79;78.64
68701;DHT22;55682;51.114;5.882;2023-03-14T01:28:55;11.84;78.23
68701;DHT22;55682;51.114;5.882;2023-03-14T01:31:23;11.88;78.42
68701;DHT22;55682;51.114;5.882;2023-03-14T01:33:50;11.86;78.63
68701;DHT22;55682;51.114;5.882;2023-03-14T01:36:18;11.83;78.73
68701;DHT22;55682;51.114;5.882;2023-03-14T01:38:44;11.82;78.79
68701;DHT22;55682;51.114;5.882;2023-03-14T01:41:16;11.92;78.37
68701;DHT22;55682;51.114;5.882;2023-03-14T01:43:44;11.73;79.27
68701;DHT22;55682;51.114;5.882;2023-03-14T01:49:02;11.69;78.92
68701;DHT22;55682;51.114;5.882;2023-03-14T01:54:27;11.76;78.67
68701;DHT22;55682;51.114;5.882;2023-03-14T01:57:08;11.85;78.30
68701;DHT22;55682;51.114;5.882;2023-03-14T01:59:38;11.79;78.36
68701;DHT22;55682;51.114;5.882;2023-03-14T02:02:09;11.86;77.79
68701;DHT22;55682;51.114;5.882;2023-03-14T02:04:38;11.83;78.07
68701;DHT22;55682;51.114;5.882;2023-03-14T02:09:42;11.62;78.63
68701;DHT22;55682;51.114;5.882;2023-03-14T02:12:15;11.74;78.03
68701;DHT22;55682;51.114;5.882;2023-03-14T02:14:46;11.79;77.92
68701;DHT22;55682;51.114;5.882;2023-03-14T02:17:31;11.74;78.06
68701;DHT22;55682;51.114;5.882;2023-03-14T02:22:54;11.70;78.01
68701;DHT22;55682;51.114;5.882;2023-03-14T02:25:24;11.70;78.18
68701;DHT22;55682;51.114;5.882;2023-03-14T02:27:53;11.73;78.07
68701;DHT22;55682;51.114;5.882;2023-03-14T02:30:26;11.92;77.11
68701;DHT22;55682;51.114;5.882;2023-03-14T02:33:06;11.86;77.44
68701;DHT22;55682;51.114;5.882;2023-03-14T02:40:48;11.97;76.66
68701;DHT22;55682;51.114;5.882;2023-03-14T02:43:14;11.97;76.60
68701;DHT22;55682;51.114;5.882;2023-03-14T02:45:46;11.99;76.53
68701;DHT22;55682;51.114;5.882;2023-03-14T02:48:25;12.07;76.34
68701;DHT22;55682;51.114;5.882;2023-03-14T02:50:55;12.00;76.79
68701;DHT22;55682;51.114;5.882;2023-03-14T02:53:31;12.02;76.66
68701;DHT22;55682;51.114;5.882;2023-03-14T02:56:00;12.00;76.95
68701;DHT22;55682;51.114;5.882;2023-03-14T02:58:27;12.07;76.49
68701;DHT22;55682;51.114;5.882;2023-03-14T03:01:00;12.06;76.93
68701;DHT22;55682;51.114;5.882;2023-03-14T03:03:25;11.92;77.59
68701;DHT22;55682;51.114;5.882;2023-03-14T03:05:54;11.91;77.80
68701;DHT22;55682;51.114;5.882;2023-03-14T03:08:22;11.91;77.98
68701;DHT22;55682;51.114;5.882;2023-03-14T03:10:49;11.78;79.09
68701;DHT22;55682;51.114;5.882;2023-03-14T03:13:15;11.70;80.25
68701;DHT22;55682;51.114;5.882;2023-03-14T03:15:42;11.58;80.32
68701;DHT22;55682;51.114;5.882;2023-03-14T03:18:08;11.67;80.80
68701;DHT22;55682;51.114;5.882;2023-03-14T03:20:34;11.52;81.23
68701;DHT22;55682;51.114;5.882;2023-03-14T03:23:00;11.38;81.59
68701;DHT22;55682;51.114;5.882;2023-03-14T03:25:26;11.33;82.26
68701;DHT22;55682;51.114;5.882;2023-03-14T03:27:52;11.18;83.07
68701;DHT22;55682;51.114;5.882;2023-03-14T03:30:19;11.16;83.26
68701;DHT22;55682;51.114;5.882;2023-03-14T03:32:46;11.14;83.20
68701;DHT22;55682;51.114;5.882;2023-03-14T03:35:12;11.17;83.04
68701;DHT22;55682;51.114;5.882;2023-03-14T03:37:39;11.14;83.02
68701;DHT22;55682;51.114;5.882;2023-03-14T03:40:07;11.08;83.59
68701;DHT22;55682;51.114;5.882;2023-03-14T03:42:34;11.12;83.97
68701;DHT22;55682;51.114;5.882;2023-03-14T03:45:03;11.07;84.33
68701;DHT22;55682;51.114;5.882;2023-03-14T03:47:31;11.05;84.00
68701;DHT22;55682;51.114;5.882;2023-03-14T03:49:56;10.93;84.65
68701;DHT22;55682;51.114;5.882;2023-03-14T03:52:22;10.97;84.64
68701;DHT22;55682;51.114;5.882;2023-03-14T03:54:48;10.96;84.48
68701;DHT22;55682;51.114;5.882;2023-03-14T03:57:13;11.01;84.26
68701;DHT22;55682;51.114;5.882;2023-03-14T03:59:39;10.96;84.52
68701;DHT22;55682;51.114;5.882;2023-03-14T04:02:06;10.95;84.29
68701;DHT22;55682;51.114;5.882;2023-03-14T04:04:32;10.95;84.62
68701;DHT22;55682;51.114;5.882;2023-03-14T04:07:00;11.01;84.71
68701;DHT22;55682;51.114;5.882;2023-03-14T04:09:26;11.02;84.41
68701;DHT22;55682;51.114;5.882;2023-03-14T04:12:17;10.98;85.00
68701;DHT22;55682;51.114;5.882;2023-03-14T04:15:04;11.03;85.26
68701;DHT22;55682;51.114;5.882;2023-03-14T04:17:31;11.08;85.22
68701;DHT22;55682;51.114;5.882;2023-03-14T04:19:56;11.07;85.09
68701;DHT22;55682;51.114;5.882;2023-03-14T04:22:30;11.11;85.22
68701;DHT22;55682;51.114;5.882;2023-03-14T04:24:56;11.14;85.47
68701;DHT22;55682;51.114;5.882;2023-03-14T04:27:21;11.19;85.55
68701;DHT22;55682;51.114;5.882;2023-03-14T04:29:47;11.28;85.59
68701;DHT22;55682;51.114;5.882;2023-03-14T04:32:16;11.31;85.26
68701;DHT22;55682;51.114;5.882;2023-03-14T04:34:42;11.26;85.70
68701;DHT22;55682;51.114;5.882;2023-03-14T04:37:08;11.37;85.09
68701;DHT22;55682;51.114;5.882;2023-03-14T04:39:38;11.22;85.71
68701;DHT22;55682;51.114;5.882;2023-03-14T04:42:10;11.25;85.79
68701;DHT22;55682;51.114;5.882;2023-03-14T04:44:37;11.08;86.94
68701;DHT22;55682;51.114;5.882;2023-03-14T04:47:03;11.34;85.17
68701;DHT22;55682;51.114;5.882;2023-03-14T04:49:29;11.25;85.59
68701;DHT22;55682;51.114;5.882;2023-03-14T04:51:55;11.30;85.93
68701;DHT22;55682;51.114;5.882;2023-03-14T04:54:23;11.26;85.93
68701;DHT22;55682;51.114;5.882;2023-03-14T04:56:53;11.05;87.05
68701;DHT22;55682;51.114;5.882;2023-03-14T04:59:19;11.09;86.81
68701;DHT22;55682;51.114;5.882;2023-03-14T05:01:46;11.00;87.22
68701;DHT22;55682;51.114;5.882;2023-03-14T05:04:41;11.08;87.12
68701;DHT22;55682;51.114;5.882;2023-03-14T05:07:35;10.96;87.45
68701;DHT22;55682;51.114;5.882;2023-03-14T05:10:23;11.09;87.27
68701;DHT22;55682;51.114;5.882;2023-03-14T05:13:03;11.10;86.97
68701;DHT22;55682;51.114;5.882;2023-03-14T05:16:05;11.25;86.56
68701;DHT22;55682;51.114;5.882;2023-03-14T05:18:46;11.24;85.98
68701;DHT22;55682;51.114;5.882;2023-03-14T05:21:33;11.08;86.79
68701;DHT22;55682;51.114;5.882;2023-03-14T05:24:10;11.24;86.29
68701;DHT22;55682;51.114;5.882;2023-03-14T05:26:53;11.30;86.29
68701;DHT22;55682;51.114;5.882;2023-03-14T05:29:33;11.18;86.47
68701;DHT22;55682;51.114;5.882;2023-03-14T05:32:17;11.26;86.25
68701;DHT22;55682;51.114;5.882;2023-03-14T05:34:58;11.33;85.35
68701;DHT22;55682;51.114;5.882;2023-03-14T05:37:47;11.25;86.15
68701;DHT22;55682;51.114;5.882;2023-03-14T05:40:32;11.24;86.28
68701;DHT22;55682;51.114;5.882;2023-03-14T05:43:16;11.19;86.27
68701;DHT22;55682;51.114;5.882;2023-03-14T05:45:52;11.16;86.96
68701;DHT22;55682;51.114;5.882;2023-03-14T05:48:50;11.22;86.61
68701;DHT22;55682;51.114;5.882;2023-03-14T05:51:36;11.24;86.72
68701;DHT22;55682;51.114;5.882;2023-03-14T05:54:24;11.24;86.48
68701;DHT22;55682;51.114;5.882;2023-03-14T05:57:25;11.26;86.73
68701;DHT22;55682;51.114;5.882;2023-03-14T06:00:12;11.32;86.51
68701;DHT22;55682;51.114;5.882;2023-03-14T06:02:39;11.22;86.72
68701;DHT22;55682;51.114;5.882;2023-03-14T06:05:14;11.25;86.73
68701;DHT22;55682;51.114;5.882;2023-03-14T06:07:40;11.23;86.86
68701;DHT22;55682;51.114;5.882;2023-03-14T06:10:06;11.29;86.93
68701;DHT22;55682;51.114;5.882;2023-03-14T06:12:32;11.34;86.29
68701;DHT22;55682;51.114;5.882;2023-03-14T06:14:58;11.40;86.00
68701;DHT22;55682;51.114;5.882;2023-03-14T06:17:24;11.24;86.98
68701;DHT22;55682;51.114;5.882;2023-03-14T06:20:00;11.31;85.80
68701;DHT22;55682;51.114;5.882;2023-03-14T06:22:26;11.34;86.15
68701;DHT22;55682;51.114;5.882;2023-03-14T06:24:53;11.39;85.96
68701;DHT22;55682;51.114;5.882;2023-03-14T06:27:20;11.39;86.12
68701;DHT22;55682;51.114;5.882;2023-03-14T06:29:46;11.44;85.87
68701;DHT22;55682;51.114;5.882;2023-03-14T06:32:12;11.48;85.95
68701;DHT22;55682;51.114;5.882;2023-03-14T06:34:38;11.44;85.96
68701;DHT22;55682;51.114;5.882;2023-03-14T06:37:04;11.44;86.41
68701;DHT22;55682;51.114;5.882;2023-03-14T06:39:31;11.48;86.05
68701;DHT22;55682;51.114;5.882;2023-03-14T06:42:04;11.45;86.23
68701;DHT22;55682;51.114;5.882;2023-03-14T06:44:30;11.53;86.34
68701;DHT22;55682;51.114;5.882;2023-03-14T06:46:56;11.40;86.65
68701;DHT22;55682;51.114;5.882;2023-03-14T06:49:22;11.32;87.32
68701;DHT22;55682;51.114;5.882;2023-03-14T06:51:51;11.40;87.15
68701;DHT22;55682;51.114;5.882;2023-03-14T06:54:17;11.47;87.16
68701;DHT22;55682;51.114;5.882;2023-03-14T06:56:42;11.45;87.23
68701;DHT22;55682;51.114;5.882;2023-03-14T06:59:09;11.52;87.03
68701;DHT22;55682;51.114;5.882;2023-03-14T07:01:35;11.56;86.59
68701;DHT22;55682;51.114;5.882;2023-03-14T07:04:06;11.49;86.12
68701;DHT22;55682;51.114;5.882;2023-03-14T07:06:34;11.59;86.13
68701;DHT22;55682;51.114;5.882;2023-03-14T07:08:59;11.66;86.27
68701;DHT22;55682;51.114;5.882;2023-03-14T07:11:25;11.78;85.68
68701;DHT22;55682;51.114;5.882;2023-03-14T07:13:51;11.72;85.09
68701;DHT22;55682;51.114;5.882;2023-03-14T07:16:17;11.85;85.45
68701;DHT22;55682;51.114;5.882;2023-03-14T07:18:43;11.99;84.68
68701;DHT22;55682;51.114;5.882;2023-03-14T07:21:09;11.99;84.73
68701;DHT22;55682;51.114;5.882;2023-03-14T07:23:36;11.98;84.52
68701;DHT22;55682;51.114;5.882;2023-03-14T07:26:01;11.96;84.63
68701;DHT22;55682;51.114;5.882;2023-03-14T07:28:29;12.20;83.49
68701;DHT22;55682;51.114;5.882;2023-03-14T07:31:00;12.20;83.29
68701;DHT22;55682;51.114;5.882;2023-03-14T07:33:30;12.30;83.62
68701;DHT22;55682;51.114;5.882;2023-03-14T07:35:56;12.56;82.36
68701;DHT22;55682;51.114;5.882;2023-03-14T07:38:22;12.63;82.19
68701;DHT22;55682;51.114;5.882;2023-03-14T07:41:23;12.79;81.10
68701;DHT22;55682;51.114;5.882;2023-03-14T07:44:08;12.71;81.76
68701;DHT22;55682;51.114;5.882;2023-03-14T07:46:33;12.72;82.12
68701;DHT22;55682;51.114;5.882;2023-03-14T07:48:59;12.77;81.77
68701;DHT22;55682;51.114;5.882;2023-03-14T07:51:25;12.70;81.88
68701;DHT22;55682;51.114;5.882;2023-03-14T07:53:50;12.69;82.21
68701;DHT22;55682;51.114;5.882;2023-03-14T07:56:16;12.64;82.19
68701;DHT22;55682;51.114;5.882;2023-03-14T07:58:41;12.56;82.26
68701;DHT22;55682;51.114;5.882;2023-03-14T08:01:07;12.42;83.42
68701;DHT22;55682;51.114;5.882;2023-03-14T08:03:33;12.43;83.61
68701;DHT22;55682;51.114;5.882;2023-03-14T08:05:58;12.45;82.62
68701;DHT22;55682;51.114;5.882;2023-03-14T08:08:24;12.45;82.68
68701;DHT22;55682;51.114;5.882;2023-03-14T08:10:50;12.45;83.12
68701;DHT22;55682;51.114;5.882;2023-03-14T08:13:15;12.50;82.77
68701;DHT22;55682;51.114;5.882;2023-03-14T08:15:41;12.58;82.55
68701;DHT22;55682;51.114;5.882;2023-03-14T08:18:07;12.60;82.18
68701;DHT22;55682;51.114;5.882;2023-03-14T08:20:32;12.56;82.70
68701;DHT22;55682;51.114;5.882;2023-03-14T08:23:00;12.42;81.60
68701;DHT22;55682;51.114;5.882;2023-03-14T08:25:27;12.27;79.97
68701;DHT22;55682;51.114;5.882;2023-03-14T08:27:54;12.13;78.99
68701;DHT22;55682;51.114;5.882;2023-03-14T08:30:21;12.03;77.44
68701;DHT22;55682;51.114;5.882;2023-03-14T08:32:48;11.94;76.57
68701;DHT22;55682;51.114;5.882;2023-03-14T08:35:14;11.89;76.29
68701;DHT22;55682;51.114;5.882;2023-03-14T08:37:40;11.84;75.60
68701;DHT22;55682;51.114;5.882;2023-03-14T08:40:08;11.79;75.84
68701;DHT22;55682;51.114;5.882;2023-03-14T08:42:36;11.78;75.71
68701;DHT22;55682;51.114;5.882;2023-03-14T08:45:03;11.76;75.59
68701;DHT22;55682;51.114;5.882;2023-03-14T08:47:29;11.72;75.47
68701;DHT22;55682;51.114;5.882;2023-03-14T08:49:54;11.73;76.02
68701;DHT22;55682;51.114;5.882;2023-03-14T08:52:20;11.82;76.07
68701;DHT22;55682;51.114;5.882;2023-03-14T08:54:46;11.79;75.84
68701;DHT22;55682;51.114;5.882;2023-03-14T08:57:12;11.76;75.83
68701;DHT22;55682;51.114;5.882;2023-03-14T08:59:38;11.71;75.65
68701;DHT22;55682;51.114;5.882;2023-03-14T09:02:05;11.58;75.26
68701;DHT22;55682;51.114;5.882;2023-03-14T09:04:32;11.49;75.46
68701;DHT22;55682;51.114;5.882;2023-03-14T09:06:59;11.51;75.62
68701;DHT22;55682;51.114;5.882;2023-03-14T09:09:25;11.48;75.49
68701;DHT22;55682;51.114;5.882;2023-03-14T09:11:55;11.55;75.31
68701;DHT22;55682;51.114;5.882;2023-03-14T09:14:21;11.67;75.10
68701;DHT22;55682;51.114;5.882;2023-03-14T09:16:47;11.86;74.33
68701;DHT22;55682;51.114;5.882;2023-03-14T09:19:12;11.94;73.50
68701;DHT22;55682;51.114;5.882;2023-03-14T09:21:38;12.01;73.20
68701;DHT22;55682;51.114;5.882;2023-03-14T09:24:05;12.19;72.88
68701;DHT22;55682;51.114;5.882;2023-03-14T09:26:30;12.29;71.98
68701;DHT22;55682;51.114;5.882;2023-03-14T09:28:56;12.38;72.18
68701;DHT22;55682;51.114;5.882;2023-03-14T09:31:22;12.52;71.58
68701;DHT22;55682;51.114;5.882;2023-03-14T09:33:48;12.58;71.08
68701;DHT22;55682;51.114;5.882;2023-03-14T09:36:14;12.56;70.72
68701;DHT22;55682;51.114;5.882;2023-03-14T09:38:39;12.45;70.51
68701;DHT22;55682;51.114;5.882;2023-03-14T09:41:33;12.32;71.05
68701;DHT22;55682;51.114;5.882;2023-03-14T09:44:14;12.18;71.47
68701;DHT22;55682;51.114;5.882;2023-03-14T09:46:43;12.07;71.80
68701;DHT22;55682;51.114;5.882;2023-03-14T09:51:49;11.75;72.86
68701;DHT22;55682;51.114;5.882;2023-03-14T09:56:54;11.86;73.22
68701;DHT22;55682;51.114;5.882;2023-03-14T09:59:20;11.86;73.32
68701;DHT22;55682;51.114;5.882;2023-03-14T10:01:46;11.88;73.96
68701;DHT22;55682;51.114;5.882;2023-03-14T10:04:21;11.88;73.93
68701;DHT22;55682;51.114;5.882;2023-03-14T10:06:48;11.86;73.83
68701;DHT22;55682;51.114;5.882;2023-03-14T10:09:20;11.76;73.76
68701;DHT22;55682;51.114;5.882;2023-03-14T10:11:59;11.90;74.53
68701;DHT22;55682;51.114;5.882;2023-03-14T10:14:33;12.34;74.03
68701;DHT22;55682;51.114;5.882;2023-03-14T10:17:12;12.93;72.79
68701;DHT22;55682;51.114;5.882;2023-03-14T10:19:57;13.21;70.43
68701;DHT22;55682;51.114;5.882;2023-03-14T10:22:29;13.18;69.22
68701;DHT22;55682;51.114;5.882;2023-03-14T10:25:04;13.24;68.87
68701;DHT22;55682;51.114;5.882;2023-03-14T10:27:33;13.20;68.83
68701;DHT22;55682;51.114;5.882;2023-03-14T10:30:05;13.25;68.42
68701;DHT22;55682;51.114;5.882;2023-03-14T10:32:37;13.24;68.03
68701;DHT22;55682;51.114;5.882;2023-03-14T10:35:19;13.18;68.16
68701;DHT22;55682;51.114;5.882;2023-03-14T10:38:01;13.01;67.53
68701;DHT22;55682;51.114;5.882;2023-03-14T10:40:31;12.79;67.93
68701;DHT22;55682;51.114;5.882;2023-03-14T10:43:00;12.61;68.69
68701;DHT22;55682;51.114;5.882;2023-03-14T10:48:22;12.25;69.42
68701;DHT22;55682;51.114;5.882;2023-03-14T10:50:54;12.04;68.78
68701;DHT22;55682;51.114;5.882;2023-03-14T10:53:21;11.91;69.09
68701;DHT22;55682;51.114;5.882;2023-03-14T10:55:47;11.71;69.58
68701;DHT22;55682;51.114;5.882;2023-03-14T10:58:23;11.51;70.60
68701;DHT22;55682;51.114;5.882;2023-03-14T11:01:12;11.41;71.13
68701;DHT22;55682;51.114;5.882;2023-03-14T11:03:48;11.39;71.02
68701;DHT22;55682;51.114;5.882;2023-03-14T11:11:47;11.92;68.11
68701;DHT22;55682;51.114;5.882;2023-03-14T11:27:46;12.96;64.10
68701;DHT22;55682;51.114;5.882;2023-03-14T11:33:14;12.75;62.29
68701;DHT22;55682;51.114;5.882;2023-03-14T11:35:59;12.34;61.26
68701;DHT22;55682;51.114;5.882;2023-03-14T11:38:49;12.04;60.37
68701;DHT22;55682;51.114;5.882;2023-03-14T11:43:48;11.83;61.96
68701;DHT22;55682;51.114;5.882;2023-03-14T11:46:24;11.97;61.84
68701;DHT22;55682;51.114;5.882;2023-03-14T11:51:55;12.71;60.06
68701;DHT22;55682;51.114;5.882;2023-03-14T11:54:48;12.64;59.91
68701;DHT22;55682;51.114;5.882;2023-03-14T11:57:18;12.59;60.56
68701;DHT22;55682;51.114;5.882;2023-03-14T11:59:50;12.64;60.08
68701;DHT22;55682;51.114;5.882;2023-03-14T12:10:38;12.37;59.86
68701;DHT22;55682;51.114;5.882;2023-03-14T12:13:06;12.47;59.44
68701;DHT22;55682;51.114;5.882;2023-03-14T12:15:39;12.56;58.70
68701;DHT22;55682;51.114;5.882;2023-03-14T12:18:20;12.63;58.32
68701;DHT22;55682;51.114;5.882;2023-03-14T12:21:03;13.16;58.71
68701;DHT22;55682;51.114;5.882;2023-03-14T12:28:37;14.14;54.75
68701;DHT22;55682;51.114;5.882;2023-03-14T12:49:45;12.05;59.93
68701;DHT22;55682;51.114;5.882;2023-03-14T12:52:22;11.67;61.65
68701;DHT22;55682;51.114;5.882;2023-03-14T13:00:02;11.26;62.57
68701;DHT22;55682;51.114;5.882;2023-03-14T13:02:42;11.26;62.70
68701;DHT22;55682;51.114;5.882;2023-03-14T13:05:16;11.28;63.24
68701;DHT22;55682;51.114;5.882;2023-03-14T13:15:29;11.97;61.84
68701;DHT22;55682;51.114;5.882;2023-03-14T13:18:01;12.08;61.63
68701;DHT22;55682;51.114;5.882;2023-03-14T13:20:37;12.15;61.38
68701;DHT22;55682;51.114;5.882;2023-03-14T13:23:04;12.07;61.21
68701;DHT22;55682;51.114;5.882;2023-03-14T13:25:33;11.93;62.02
68701;DHT22;55682;51.114;5.882;2023-03-14T13:28:01;11.98;62.36
68701;DHT22;55682;51.114;5.882;2023-03-14T13:30:39;12.17;62.35
68701;DHT22;55682;51.114;5.882;2023-03-14T13:33:05;12.26;61.67
68701;DHT22;55682;51.114;5.882;2023-03-14T13:35:44;12.44;61.72
68701;DHT22;55682;51.114;5.882;2023-03-14T13:38:22;12.69;61.21
68701;DHT22;55682;51.114;5.882;2023-03-14T13:40:50;12.90;59.91
68701;DHT22;55682;51.114;5.882;2023-03-14T13:48:52;13.26;56.71
68701;DHT22;55682;51.114;5.882;2023-03-14T13:51:20;13.35;55.94
68701;DHT22;55682;51.114;5.882;2023-03-14T13:53:54;13.37;55.22
68701;DHT22;55682;51.114;5.882;2023-03-14T13:56:22;13.36;55.08
68701;DHT22;55682;51.114;5.882;2023-03-14T13:58:49;13.34;54.46
68701;DHT22;55682;51.114;5.882;2023-03-14T14:01:34;13.23;54.16
68701;DHT22;55682;51.114;5.882;2023-03-14T14:04:14;13.23;54.16
68701;DHT22;55682;51.114;5.882;2023-03-14T14:06:50;13.08;53.71
68701;DHT22;55682;51.114;5.882;2023-03-14T14:09:30;12.93;53.96
68701;DHT22;55682;51.114;5.882;2023-03-14T14:12:26;12.84;54.10
68701;DHT22;55682;51.114;5.882;2023-03-14T14:14:59;12.89;54.40
68701;DHT22;55682;51.114;5.882;2023-03-14T14:17:35;12.87;54.17
68701;DHT22;55682;51.114;5.882;2023-03-14T14:20:05;12.84;54.13
68701;DHT22;55682;51.114;5.882;2023-03-14T14:22:32;12.93;54.20
68701;DHT22;55682;51.114;5.882;2023-03-14T14:24:59;13.03;54.11
68701;DHT22;55682;51.114;5.882;2023-03-14T14:27:48;13.12;53.62
68701;DHT22;55682;51.114;5.882;2023-03-14T14:32:42;13.30;52.67
68701;DHT22;55682;51.114;5.882;2023-03-14T14:35:11;13.35;52.28
68701;DHT22;55682;51.114;5.882;2023-03-14T14:37:47;13.35;52.08
68701;DHT22;55682;51.114;5.882;2023-03-14T14:40:21;13.38;51.70
68701;DHT22;55682;51.114;5.882;2023-03-14T14:42:46;13.39;51.44
68701;DHT22;55682;51.114;5.882;2023-03-14T14:45:17;13.45;50.50
68701;DHT22;55682;51.114;5.882;2023-03-14T14:48:06;13.39;49.46
68701;DHT22;55682;51.114;5.882;2023-03-14T14:50:37;13.35;48.78
68701;DHT22;55682;51.114;5.882;2023-03-14T14:53:36;13.24;47.82
68701;DHT22;55682;51.114;5.882;2023-03-14T14:56:08;13.23;47.65
68701;DHT22;55682;51.114;5.882;2023-03-14T14:58:44;13.29;46.38
68701;DHT22;55682;51.114;5.882;2023-03-14T15:01:23;13.18;45.48
68701;DHT22;55682;51.114;5.882;2023-03-14T15:03:53;13.09;44.30
68701;DHT22;55682;51.114;5.882;2023-03-14T15:06:20;13.06;44.22
68701;DHT22;55682;51.114;5.882;2023-03-14T15:08:47;13.05;43.96
68701;DHT22;55682;51.114;5.882;2023-03-14T15:11:18;12.94;42.39
68701;DHT22;55682;51.114;5.882;2023-03-14T15:13:43;12.82;41.31
68701;DHT22;55682;51.114;5.882;2023-03-14T15:16:17;12.70;40.64
68701;DHT22;55682;51.114;5.882;2023-03-14T15:18:43;12.64;40.97
68701;DHT22;55682;51.114;5.882;2023-03-14T15:21:10;12.65;41.27
68701;DHT22;55682;51.114;5.882;2023-03-14T15:23:37;12.62;41.65
68701;DHT22;55682;51.114;5.882;2023-03-14T15:26:05;12.55;41.52
68701;DHT22;55682;51.114;5.882;2023-03-14T15:28:30;12.42;41.52
68701;DHT22;55682;51.114;5.882;2023-03-14T15:30:58;12.29;41.12
68701;DHT22;55682;51.114;5.882;2023-03-14T15:33:25;12.17;41.09
68701;DHT22;55682;51.114;5.882;2023-03-14T15:35:52;12.04;41.16
68701;DHT22;55682;51.114;5.882;2023-03-14T15:38:20;11.96;41.49
68701;DHT22;55682;51.114;5.882;2023-03-14T15:40:49;11.93;42.06
68701;DHT22;55682;51.114;5.882;2023-03-14T15:43:16;11.86;42.58
68701;DHT22;55682;51.114;5.882;2023-03-14T15:45:41;11.81;42.84
68701;DHT22;55682;51.114;5.882;2023-03-14T15:48:18;11.67;42.97
68701;DHT22;55682;51.114;5.882;2023-03-14T15:50:44;11.53;43.07
68701;DHT22;55682;51.114;5.882;2023-03-14T15:53:10;11.41;43.36
68701;DHT22;55682;51.114;5.882;2023-03-14T15:55:36;11.30;43.31
68701;DHT22;55682;51.114;5.882;2023-03-14T15:58:01;11.20;43.24
68701;DHT22;55682;51.114;5.882;2023-03-14T16:00:28;11.10;43.46
68701;DHT22;55682;51.114;5.882;2023-03-14T16:02:54;10.98;43.43
68701;DHT22;55682;51.114;5.882;2023-03-14T16:05:20;10.88;43.48
68701;DHT22;55682;51.114;5.882;2023-03-14T16:07:46;10.82;43.66
68701;DHT22;55682;51.114;5.882;2023-03-14T16:10:14;10.79;43.55
68701;DHT22;55682;51.114;5.882;2023-03-14T16:12:40;10.74;43.66
68701;DHT22;55682;51.114;5.882;2023-03-14T16:15:07;10.71;43.52
68701;DHT22;55682;51.114;5.882;2023-03-14T16:17:33;10.67;44.03
68701;DHT22;55682;51.114;5.882;2023-03-14T16:19:59;10.67;44.45
68701;DHT22;55682;51.114;5.882;2023-03-14T16:22:25;10.67;44.74
68701;DHT22;55682;51.114;5.882;2023-03-14T16:24:50;10.63;45.28
68701;DHT22;55682;51.114;5.882;2023-03-14T16:27:16;10.62;45.75
68701;DHT22;55682;51.114;5.882;2023-03-14T16:29:42;10.62;45.85
68701;DHT22;55682;51.114;5.882;2023-03-14T16:32:08;10.57;45.84
68701;DHT22;55682;51.114;5.882;2023-03-14T16:34:37;10.50;46.19
68701;DHT22;55682;51.114;5.882;2023-03-14T16:37:04;10.41;45.48
68701;DHT22;55682;51.114;5.882;2023-03-14T16:39:29;10.28;45.37
68701;DHT22;55682;51.114;5.882;2023-03-14T16:41:57;10.18;45.11
68701;DHT22;55682;51.114;5.882;2023-03-14T16:44:23;10.06;45.19
68701;DHT22;55682;51.114;5.882;2023-03-14T16:46:51;9.94;45.28
68701;DHT22;55682;51.114;5.882;2023-03-14T16:49:17;9.89;45.42
68701;DHT22;55682;51.114;5.882;2023-03-14T16:51:42;9.82;45.86
68701;DHT22;55682;51.114;5.882;2023-03-14T16:54:08;9.77;46.19
68701;DHT22;55682;51.114;5.882;2023-03-14T16:56:34;9.72;46.41
68701;DHT22;55682;51.114;5.882;2023-03-14T16:59:00;9.72;47.25
68701;DHT22;55682;51.114;5.882;2023-03-14T17:01:26;9.75;47.33
68701;DHT22;55682;51.114;5.882;2023-03-14T17:03:51;9.70;47.53
68701;DHT22;55682;51.114;5.882;2023-03-14T17:06:26;9.64;47.83
68701;DHT22;55682;51.114;5.882;2023-03-14T17:08:53;9.59;48.15
68701;DHT22;55682;51.114;5.882;2023-03-14T17:11:20;9.59;48.36
68701;DHT22;55682;51.114;5.882;2023-03-14T17:13:46;9.55;48.41
68701;DHT22;55682;51.114;5.882;2023-03-14T17:16:12;9.54;48.31
68701;DHT22;55682;51.114;5.882;2023-03-14T17:18:38;9.48;47.88
68701;DHT22;55682;51.114;5.882;2023-03-14T17:21:05;9.40;48.18
68701;DHT22;55682;51.114;5.882;2023-03-14T17:23:32;9.39;48.57
68701;DHT22;55682;51.114;5.882;2023-03-14T17:25:58;9.34;48.57
68701;DHT22;55682;51.114;5.882;2023-03-14T17:28:26;9.27;48.44
68701;DHT22;55682;51.114;5.882;2023-03-14T17:33:27;9.11;48.20
68701;DHT22;55682;51.114;5.882;2023-03-14T17:35:53;9.08;48.29
68701;DHT22;55682;51.114;5.882;2023-03-14T17:38:19;9.04;47.58